Annette Island, AK

3:27 PM AKDT on August 01, 2014 (GMT -0800)
Metlakatla (PAMM) Elev 0 ft | 55.13 °N, 131.58 °W | Change Station

Current weather conditions updated 2 hours ago

Clear
Clear
70 °F
Feels Like 70 °F
N
6
Wind Variable Wind from SW

Today is forecast to be Warmer than yesterday.

Today
High -- | Low -- °F
--% Chance of Precip.
Yesterday
High -- | Low -- °F
Precip. -- in
4:55 AM 8:48 PM
Waxing Crescent, 30% visible
Pressure 30.18 in
Visibility 10.0 miles
Clouds Clear
Dew Point 57 °F
Humidity 64%
Rainfall 0.00 in
Snow Depth Not available.
UV 8 out of 12
Pollen Not available.
Air Quality Not available.
Flu Activity Not available.
METAR PAMM 012100Z AUTO 23005KT 10SM CLR 21/14 A3018 RMK VIA PHONE

More Conditions Fewer Conditions

Pressure 30.18 in
Visibility 10.0 miles
Clouds Clear
Dew Point 57 °F
Humidity 64%
Rainfall 0.00 in
Snow Depth Not available.
UV 8 out of 12
Pollen Not available.
Air Quality Not available.
Flu Activity Not available.
METAR PAMM 012100Z AUTO 23005KT 10SM CLR 21/14 A3018 RMK VIA PHONE

More Conditions Fewer Conditions

10-Day Weather Forecast

Almanac

Astronomy

Aug. 01, 2014 Rise Set
Actual Time 4:55 AM AKDT 8:48 PM AKDT
Civil Twilight 4:08 AM AKDT 9:34 PM AKDT
Nautical Twilight 3:01 AM AKDT 10:40 PM AKDT
Astronomical Twilight 1:25 AM AKDT 12:20 AM AKDT
Moon 11:30 AM AKDT 10:29 PM AKDT
Length of Visible Light 17h 25m
Length of Day
15h 53m
Tomorrow will be 3m 43s shorter.
Waxing Crescent, 30% of the Moon is Illuminated
Today
Waxing Crescent
Aug 3
First Quarter
Aug 10
Full
Aug 17
Last Quarter
Aug 25
New

Today's Extremes

State Highs State Lows

Community

WunderPhotos

Upload Photos

1,739,751 photos uploaded!

Nearby

Snow Depth

Station Depth Elevation
Long Lake 0 in 820 ft
Upper Tsaina River 0 in 1750 ft
Grouse Creek Divide 0 in 700 ft
Grandview 2 in 1100 ft
Turnagain Pass 0 in 1880 ft

Earthquake Activity

City Distance Mag. Time & Date
No recent earthquake activity has been reported nearby.
Minimum magnitude displayed is 2.5.

Coastal Water Temperatures

Place Temperature
No Stations Reporting

Nearby Weather Stations

Station Location Temp. Heat Index Dew Point Humidity Wind Precip. Elev Updated Type
CRN NOAA/NWS ANNETTE ISLAND 6 S AK , Metlakatla, AK 73 °F 71 °F - - North  at  - 0.00 in / hr 104 ft 2:30 PM AKDT MADIS
Bailey Blvd, Ketchikan, AK 76.5 °F 78 °F 56 °F 50% WSW  at  2.0 mph 0.00 in / hr 240 ft 3:25 PM AKDT Normal

Show More Stations Show Fewer Stations